TAF Text Data
IDs:
Format:
Raw Decoded Include METAR

Data at: 1858 UTC 31 Jul 2021

TAF for:KSBD (San Bernardino Intl, CA, US) issued at 1731 UTC 31 Jul 2021
Text:KSBD 311731Z 3118/0118 VRB04KT P6SM SCT150
Forecast period:1800 to 2000 UTC 31 July 2021
Forecast type:FROM: standard forecast or significant change
Winds:variable direction winds at 5 MPH (4 knots; 2.1 m/s)
Visibility:6 or more sm (10+ km)
Ceiling:at least 12,000 feet AGL
Clouds: scattered clouds at 15000 feet AGL
Text:FM312000 26011KT P6SM SCT100
Forecast period:2000 UTC 31 July 2021 to 0400 UTC 01 August 2021
Forecast type:FROM: standard forecast or significant change
Winds:from the W (260 degrees) at 13 MPH (11 knots; 5.7 m/s)
Visibility:6 or more sm (10+ km)
Ceiling:at least 12,000 feet AGL
Clouds: scattered clouds at 10000 feet AGL
Text:FM010400 VRB04KT P6SM SKC
Forecast period:0400 to 1800 UTC 01 August 2021
Forecast type:FROM: standard forecast or significant change
Winds:variable direction winds at 5 MPH (4 knots; 2.1 m/s)
Visibility:6 or more sm (10+ km)
Ceiling:at least 12,000 feet AGL
Clouds:clear skies